Saturday, August 23, 2014
09:34 UTC
  |  Log In   |  Register Free
Airport Search:

Clayton Municipal Airport
(11A)

Clayton Municipal Airport Diagram
No Airport Diagram Available

FAA data valid effective July 24, 2014 until September 18, 2014 (unless otherwise noted).

 
 
 
 
 
 
 
 
 
 
 
 
 
 

Current Aviation Weather for Clayton Municipal Airport (11A)

The most recent METAR observation for KEUF was updated at: 1758 UTC
METAR Summary (Translated METAR)
KEUF
281758Z AUTO 28008KT 10SM FEW040 36/24 A2994 RMK AO2 SLP135 T03560239 10356 20267 58012
KLSF
(24.2 nm NE from KEUF)
281758Z AUTO 28007KT 10SM FEW037 SCT200 33/25 A2993 RMK AO2 SLP135 T03280249 10332 20258 57014
TAF Summary (Translated TAF)
KLSF
(24.2 nm NE from KEUF)
2301/2407 VRB04KT 9999 SCT050 QNH2992INS TEMPO 2309/2312 3200 BR BECMG 2312/2313 34009KT 9999 SCT050 SCT250 QNH2987INS TEMPO 2319/2322 33010G15KT 6000 -TSRA BKN040CB BECMG 2321/2322 32005KT 9999 FEW050 SCT120 QNH2985INS TX37/2320Z TN24/2311Z
KCSG
(35.3 nm NE from KEUF)
230530Z 2306/2406 31002KT P6SM FEW250 FM231600 32006KT P6SM FEW045 FM231900 33008KT P6SM VCSH SCT060 PROB30 2319/2323 -TSRA BKN035CB FM240200 34005KT P6SM FEW070 SCT120
  Airport Weather Conditions for 11A

Current weather conditions are
not available for 11A


The nearest NOAA weather station
is at EUF, (18.6 nm NE from 11A)
  
 Current Weather at EUF
76° F
Fair
North winds at 0.0 mph
EUF NOAA Radar

Pressure: 29.97 in
Humidity: 88%
Wind: Calm
Dew Point: 72.0°F
Visibility: 8.00 mi


Airport Weather Forecast for 11A

Translated METAR and TAF for KEUF
Translated METAR for KEUF (0927 UTC 23 August 2014)
found at http://aviationweather.gov/adds/metars/
 
METAR text: KEUF 230858Z AUTO 00000KT 9SM CLR 23/22 A2996 RMK AO2 SLP141 T02280217 56009
Conditions at: KEUF (EUFAULA , AL, US) observed 0858 UTC 23 August 2014
Temperature: 22.8°C (73°F)
Dewpoint: 21.7°C (71°F) [RH = 94%]
Pressure (altimeter): 29.96 inches Hg (1014.6 mb)
[Sea-level pressure: 1014.1 mb]
Winds: calm
Visibility: 9 miles (14 km)
Ceiling: at least 12,000 feet AGL
Clouds: sky clear below 12,000 feet AGL
Weather: automated observation with no human augmentation;
there may or may not be significant weather present at this time
Translated TAF for KEUF

There is no translated TAF available for this airport

Find All Airport Services Find A Hotel Find A Rental Car Find A Golf Course Find A Restaurant $100 Hamburger



FBO's on the Field
FBO Company Facility Photos Services Transportation Aviation Fuel Prices: Prices include tax
Catering Weather Repair Courtesy Rental Type 100LL JetA JetA+ MOGAS 8087
 
Add another FBO Facility Photos Catering Weather Repair Courtesy Rental Type 100LL JetA JetA+ MOGAS 8087
Services Transportation Aviation Fuel Prices: Prices include tax
There are no FBO's currently reporting fuel at 11A. List your FBO now


GlobalAir.com Airport Resource Center model-print
model-print
model-print
model-print